Date,TemperatureHighF,TemperatureAvgF,TemperatureLowF,DewpointHighF,DewpointAvgF,DewpointLowF,HumidityHigh,HumidityAvg,HumidityLow,PressureMaxIn,PressureMinIn,WindSpeedMaxMPH,WindSpeedAvgMPH,GustSpeedMaxMPH,PrecipitationSumIn
2014-1-1,69.9,52.1,35.7,32.5,29.3,27.1,72,45,21,30.16,30.04,6,0,9,0.00
2014-1-2,75.5,56.4,38.9,31.6,27.4,22.3,70,39,14,30.15,30.01,13,1,13,0.00
2014-1-3,75.7,57.8,44.3,31.6,28.5,25.8,51,34,18,30.03,29.86,11,1,11,0.00
2014-1-4,68.3,52.9,41.5,33.9,30.9,27.4,67,46,22,30.02,29.91,5,0,5,0.00
2014-1-5,64.4,50.2,37.6,33.4,28.3,10.0,73,46,21,30.17,30.01,7,0,7,0.00
2014-1-6,66.5,48.9,33.2,24.5,16.4,9.2,65,31,13,30.28,30.12,5,0,5,0.00
2014-1-7,71.0,52.1,34.2,23.1,16.3,11.2,44,27,11,30.17,30.01,11,1,11,0.00
2014-1-8,67.7,52.9,38.7,29.6,23.0,19.1,54,33,17,30.08,29.99,9,0,9,0.00
2014-1-9,66.8,47.4,34.1,27.4,22.9,20.8,63,41,19,30.08,29.94,6,0,8,0.00
2014-1-10,65.9,48.5,32.1,27.8,24.3,21.3,71,42,21,30.16,30.03,7,0,7,0.00
2014-1-11,71.7,52.2,34.0,30.3,27.1,23.8,69,41,20,30.21,30.03,5,0,5,0.00
2014-1-12,70.3,52.8,38.3,32.6,29.8,27.2,65,44,23,30.18,29.98,13,1,13,0.00
2014-1-13,66.8,52.3,37.3,31.7,24.4,16.3,70,38,15,30.32,30.17,14,1,14,0.00
2014-1-14,67.3,49.5,31.1,25.8,22.5,19.8,63,38,18,30.33,30.22,11,1,11,0.00
2014-1-15,72.8,53.5,35.7,25.4,21.6,14.0,58,33,11,30.32,30.15,7,0,7,0.00
2014-1-16,72.2,53.3,34.8,26.4,23.1,17.8,60,34,13,30.17,30.03,12,1,12,0.00
2014-1-17,76.1,55.2,36.1,24.1,20.7,12.9,58,31,9,30.18,30.03,7,0,7,0.00
2014-1-18,77.0,54.4,34.7,23.5,19.9,12.5,55,30,9,30.14,30.02,6,0,6,0.00
2014-1-19,79.1,57.8,40.0,24.2,20.1,14.5,45,26,9,30.17,30.04,12,1,12,0.00
2014-1-20,76.7,56.4,37.0,25.6,22.4,17.8,55,30,11,30.20,30.06,9,1,9,0.00
2014-1-21,78.0,58.4,39.9,25.9,19.3,11.3,48,26,8,30.20,30.03,17,1,17,0.00
2014-1-22,75.7,60.2,48.7,27.2,22.5,18.1,38,24,13,30.05,29.82,12,0,12,0.00
2014-1-23,73.5,55.5,38.2,28.8,24.1,21.8,55,32,15,30.15,29.86,6,0,6,0.00
2014-1-24,67.7,60.0,53.2,26.4,22.5,20.4,33,24,18,30.27,30.15,16,2,16,0.00
2014-1-25,73.3,62.5,55.1,48.2,33.6,24.1,44,34,27,30.19,30.03,11,1,11,0.00
2014-1-26,72.9,58.3,43.1,35.7,29.1,21.8,63,35,19,30.07,29.91,11,0,11,0.00
2014-1-27,71.3,59.2,50.8,34.1,28.6,22.1,45,32,19,30.00,29.88,15,1,15,0.00
2014-1-28,72.4,55.0,37.4,32.6,27.1,23.9,67,37,18,30.08,29.96,10,0,10,0.00
2014-1-29,74.9,55.5,37.0,27.8,23.0,16.6,59,32,11,30.08,29.93,8,0,8,0.00
2014-1-30,79.0,58.6,41.6,30.3,24.0,20.4,45,29,16,29.95,29.76,21,1,21,0.00
2014-1-31,73.3,65.2,57.7,40.0,31.8,24.2,48,30,18,29.79,29.68,20,3,20,0.00
2014-2-1,61.2,55.4,50.4,47.4,37.1,23.1,85,53,27,29.95,29.75,12,2,15,0.03
2014-2-2,63.2,51.3,36.0,25.3,21.6,15.9,53,32,22,30.08,29.93,8,1,8,0.00
2014-2-3,64.1,49.3,40.4,36.1,25.4,16.0,81,42,18,29.94,29.76,16,1,16,0.00
2014-2-4,59.1,46.5,35.0,36.6,31.0,26.4,90,59,31,30.09,29.93,10,1,10,0.00
2014-2-5,61.8,50.2,38.5,32.2,29.8,26.1,64,47,30,30.07,29.92,12,1,12,0.00
2014-2-6,58.2,48.8,36.1,36.1,30.6,27.1,73,51,35,30.05,29.93,10,0,10,0.00
2014-2-7,66.6,55.1,43.2,39.6,35.1,31.1,75,49,29,30.12,29.97,12,0,12,0.00
2014-2-8,70.4,54.4,39.1,35.4,31.5,27.8,72,45,21,30.21,30.10,8,0,8,0.00
2014-2-9,78.3,59.2,40.3,39.4,33.2,28.9,65,40,22,30.15,29.97,11,1,11,0.00
2014-2-10,77.7,60.2,42.5,35.9,33.2,30.3,65,39,19,30.00,29.82,17,1,17,0.00
2014-2-11,75.1,59.3,42.9,37.2,31.1,24.0,67,38,17,30.04,29.88,11,0,11,0.00
2014-2-12,76.9,59.9,40.4,31.0,26.4,19.8,58,31,13,30.11,29.97,11,1,11,0.00
2014-2-13,83.0,62.5,41.4,28.8,25.9,23.0,50,28,13,30.09,29.92,10,0,10,0.00
2014-2-14,85.8,65.5,43.3,30.9,27.7,24.4,51,27,12,30.04,29.92,9,1,9,0.00
2014-2-15,89.1,64.6,47.2,30.2,26.6,22.1,46,27,9,30.00,29.89,12,1,12,0.00
2014-2-16,85.6,67.5,48.6,29.3,23.2,14.0,37,21,7,29.98,29.88,10,0,10,0.00
2014-2-17,87.0,67.9,47.9,28.0,22.8,15.0,40,21,7,30.01,29.85,11,1,11,0.00
2014-2-18,85.7,66.2,44.4,29.0,23.4,16.8,42,22,8,29.96,29.80,9,0,9,0.00
2014-2-19,80.3,63.6,48.4,31.0,24.8,14.7,43,25,10,29.87,29.72,11,1,11,0.00
2014-2-20,75.3,59.7,43.4,27.3,17.7,5.2,46,23,8,30.03,29.83,12,1,12,0.00
2014-2-21,78.2,58.9,41.0,17.9,12.6,7.9,33,18,7,30.03,29.86,11,1,11,0.00
2014-2-22,79.3,60.1,39.6,19.0,14.1,10.9,35,19,8,29.93,29.81,12,0,12,0.00
2014-2-23,79.2,62.6,44.1,26.3,18.8,14.5,34,20,9,29.99,29.88,8,0,12,0.00
2014-2-24,81.5,64.7,49.0,32.9,28.0,22.3,41,26,15,29.97,29.83,16,0,16,0.00
2014-2-25,75.5,62.6,49.7,40.1,31.9,26.1,43,32,23,29.96,29.87,12,0,12,0.00
2014-2-26,80.3,65.3,46.4,42.0,37.1,31.6,69,38,18,29.98,29.82,12,1,12,0.00
2014-2-27,78.9,64.5,47.6,40.0,37.3,34.1,63,39,21,29.94,29.75,17,1,17,0.00
2014-2-28,82.7,67.8,50.5,41.9,37.8,32.6,63,36,17,29.84,29.73,18,2,18,0.00
2014-3-1,68.8,61.6,54.3,51.3,45.1,35.8,80,56,32,29.92,29.73,29,2,29,0.23
2014-3-2,66.0,55.4,45.8,48.7,44.7,41.6,94,70,42,30.12,29.91,14,1,14,0.03
2014-3-3,71.2,58.4,48.5,46.9,44.6,42.7,87,62,38,30.08,29.88,12,1,12,0.00
2014-3-4,73.7,61.0,50.3,48.4,45.0,42.6,84,58,34,29.94,29.79,12,1,12,0.00
2014-3-5,77.1,62.9,45.4,45.6,39.1,32.5,86,46,22,30.01,29.92,12,1,12,0.00
2014-3-6,83.8,66.1,51.3,42.4,35.9,23.3,68,38,11,29.99,29.81,10,1,13,0.00
2014-3-7,80.1,64.4,47.1,42.7,37.4,29.5,68,40,16,29.85,29.73,18,2,18,0.00
2014-3-8,77.5,63.4,49.2,42.9,33.7,21.3,68,37,15,30.06,29.84,23,2,23,0.00
2014-3-9,73.0,63.5,55.7,36.7,26.4,16.8,48,26,12,30.16,29.99,29,6,29,0.00
2014-3-10,79.8,66.4,54.9,36.0,31.7,27.0,39,28,18,30.07,29.88,12,1,12,0.00
2014-3-11,79.3,64.2,46.7,40.4,32.3,24.7,63,34,14,29.96,29.83,13,1,13,0.00
2014-3-12,82.1,66.7,46.3,36.5,30.4,26.3,57,29,14,29.98,29.83,9,1,12,0.00
2014-3-13,82.9,69.5,59.8,32.6,28.4,25.3,28,22,16,29.89,29.71,15,3,15,0.00
2014-3-14,75.7,62.2,49.0,36.8,31.4,26.9,50,32,18,30.00,29.80,17,1,17,0.00
2014-3-15,75.8,62.9,45.3,35.7,25.5,0.2,61,30,7,30.11,29.96,21,3,21,0.00
2014-3-16,76.6,64.5,51.9,15.8,9.6,3.8,20,12,7,30.22,30.04,13,1,13,0.00
2014-3-17,85.0,66.6,44.7,21.1,14.5,5.2,35,16,6,30.06,29.60,18,2,18,0.00
2014-3-18,78.8,66.3,49.7,24.2,14.1,5.0,28,15,6,29.84,29.61,12,1,12,0.00
2014-3-19,81.5,64.5,44.2,20.8,14.1,7.3,32,16,6,30.00,29.84,10,1,10,0.00
2014-3-20,85.4,66.7,44.9,24.5,19.0,15.0,38,18,8,30.01,29.79,16,1,16,0.00
2014-3-21,83.6,69.3,49.5,29.4,20.7,12.7,36,17,9,29.87,29.75,22,1,22,0.00
2014-3-22,82.5,67.1,50.3,24.9,20.3,15.6,28,18,9,29.93,29.80,14,1,14,0.00
2014-3-23,84.0,67.0,47.4,31.5,25.1,20.8,42,22,11,30.02,29.86,11,1,11,0.00
2014-3-24,84.6,69.1,49.4,31.8,24.7,18.8,41,21,9,29.99,29.84,12,1,12,0.00
2014-3-25,84.6,67.3,51.7,35.9,28.8,22.7,37,25,11,29.87,29.68,19,1,19,0.00
2014-3-26,82.1,66.7,52.7,37.3,30.1,18.6,43,28,13,29.80,29.66,15,3,22,0.00
2014-3-27,73.4,62.9,50.5,44.6,35.1,25.6,62,38,17,29.94,29.79,20,2,20,0.00
2014-3-28,76.0,62.6,46.5,33.9,29.5,26.0,53,30,16,30.08,29.94,12,1,12,0.00
2014-3-29,87.3,67.3,45.6,31.5,24.1,15.4,48,23,8,30.09,29.85,10,1,10,0.00
2014-3-30,80.7,65.6,52.2,29.3,24.3,19.1,33,22,12,29.88,29.76,18,2,18,0.00
2014-3-31,84.7,67.5,45.1,28.2,21.2,9.5,43,20,7,29.95,29.78,20,2,20,0.00
2014-4-1,83.0,68.4,50.7,23.6,12.2,-1.6,29,14,4,29.86,29.71,19,2,19,0.00
2014-4-2,69.6,59.6,50.4,37.4,27.0,16.2,45,30,19,29.90,29.75,21,3,21,0.00
2014-4-3,69.5,57.5,43.2,30.2,22.5,17.4,44,27,15,30.02,29.89,13,2,13,0.00
2014-4-4,80.8,62.7,42.3,23.7,17.8,8.4,41,20,8,29.97,29.74,15,1,15,0.00
2014-4-5,74.9,64.1,52.7,23.2,19.1,14.4,26,18,12,29.87,29.71,17,1,17,0.00
2014-4-6,76.2,63.4,46.2,26.5,20.3,14.5,38,20,10,29.94,29.85,20,2,20,0.00
2014-4-7,85.0,68.6,48.6,23.8,20.5,15.4,31,18,9,30.06,29.92,16,2,16,0.00
2014-4-8,92.7,73.7,49.8,25.6,15.7,-9.1,34,15,2,30.09,29.93,11,1,11,0.00
2014-4-9,92.8,73.9,51.6,20.7,12.9,0.0,25,12,3,29.99,29.85,11,1,11,0.00
2014-4-10,96.2,78.0,55.8,18.4,-1.1,-99.9,20,9,1,29.94,29.77,13,1,13,0.00
2014-4-11,96.8,79.6,63.9,23.4,16.7,8.2,19,10,5,29.87,29.66,15,1,15,0.00
2014-4-12,86.7,76.6,65.1,27.2,18.9,9.2,17,12,6,29.74,29.58,18,2,18,0.00
2014-4-13,87.0,71.6,52.1,37.5,22.9,16.6,26,17,9,29.80,29.67,19,2,19,0.00
2014-4-14,84.0,71.4,58.9,30.0,13.6,-5.8,28,13,3,29.94,29.79,14,1,14,0.00
2014-4-15,92.0,72.0,48.7,21.4,12.2,-0.6,25,12,3,29.91,29.66,15,1,15,0.00
2014-4-16,90.3,73.4,50.4,21.7,11.5,2.8,24,11,4,29.75,29.61,17,2,17,0.00
2014-4-17,93.8,78.4,60.4,31.1,22.8,15.7,23,14,6,29.84,29.68,11,2,11,0.00
2014-4-18,79.5,70.9,65.1,46.1,37.7,28.9,49,31,17,29.87,29.75,18,1,18,0.00
2014-4-19,82.5,69.8,57.9,47.2,42.8,36.3,60,40,20,29.94,29.80,20,2,20,0.00
2014-4-20,87.7,72.6,54.0,45.5,40.5,36.1,67,35,18,29.99,29.86,7,1,13,0.00
2014-4-21,96.9,78.7,58.2,40.4,34.6,26.3,45,23,9,29.97,29.76,12,1,12,0.00
2014-4-22,95.3,80.2,62.7,40.1,33.0,22.8,38,20,8,29.80,29.60,20,2,20,0.00
2014-4-23,86.5,75.3,60.4,35.8,25.2,12.5,34,18,7,29.77,29.66,21,3,21,0.00
2014-4-25,81.1,74.4,66.4,27.2,25.2,21.8,22,16,12,29.68,29.62,13,2,13,0.00
2014-4-26,72.2,65.5,54.5,49.3,32.3,22.2,67,31,17,29.81,29.55,22,4,22,0.02
2014-4-27,77.5,64.1,47.1,40.3,30.5,23.2,70,32,14,29.89,29.76,14,1,14,0.00
2014-4-28,81.7,68.3,50.0,31.8,28.0,23.5,41,23,13,29.91,29.79,19,2,19,0.00
2014-4-29,82.8,71.0,58.6,29.0,6.6,-14.8,32,10,2,29.94,29.80,21,5,21,0.00
2014-4-30,84.8,71.3,54.7,14.6,9.8,4.5,15,10,5,29.93,29.73,22,2,22,0.00
2014-5-1,87.5,74.3,61.5,27.8,22.4,13.2,22,15,9,29.90,29.78,23,4,23,0.00
2014-5-2,91.7,75.9,52.4,28.5,18.5,10.0,30,14,5,29.96,29.80,12,1,12,0.00
2014-5-3,99.0,81.5,57.9,22.2,13.7,2.9,22,10,3,29.90,29.72,15,1,15,0.00
2014-5-4,99.2,83.5,63.3,21.9,13.7,2.1,17,8,3,29.88,29.72,19,2,19,0.00
2014-5-5,93.8,80.4,62.7,33.2,21.1,15.7,25,12,6,29.85,29.68,21,2,21,0.00
2014-5-6,89.3,76.1,62.9,35.9,17.3,-11.4,36,14,2,29.71,29.51,26,3,26,0.00
2014-5-7,75.5,65.9,55.0,42.0,30.9,17.0,60,29,12,29.83,29.62,20,2,20,0.00
2014-5-8,80.8,68.1,51.4,33.6,28.1,20.8,43,24,12,29.92,29.82,11,1,11,0.00
2014-5-9,88.5,71.9,51.8,29.2,25.4,18.3,36,20,8,29.94,29.78,14,1,14,0.00
2014-5-10,94.5,77.9,56.6,37.2,30.2,24.9,34,19,9,29.80,29.55,19,2,19,0.00
2014-5-11,81.1,72.6,58.9,43.9,26.9,8.9,35,20,9,29.82,29.53,24,5,24,0.00
2014-5-12,84.0,68.9,49.1,24.2,16.5,9.7,23,14,8,29.94,29.81,15,2,15,0.00
2014-5-13,89.4,75.6,61.3,20.9,12.9,5.0,18,10,5,30.00,29.88,18,1,18,0.00
2014-5-14,88.7,76.8,65.9,26.8,21.5,6.2,21,13,8,30.04,29.90,25,5,25,0.00
2014-5-15,97.5,82.9,67.9,21.6,15.6,3.0,16,9,3,30.00,29.82,14,2,14,0.00
2014-5-16,100.4,84.0,58.7,23.5,16.1,-4.5,23,10,2,29.91,29.71,16,1,16,0.00
2014-5-17,102.5,86.6,66.4,24.0,8.8,-17.7,18,7,1,29.80,29.62,17,2,17,0.00
2014-5-18,102.3,84.6,63.6,13.9,1.5,-99.9,13,6,1,29.73,29.59,15,2,15,0.00
2014-5-19,99.3,85.2,64.6,29.1,9.3,-17.7,15,7,1,29.74,29.63,21,2,21,0.00
2014-5-20,98.0,83.3,65.3,22.5,16.9,8.7,16,9,4,29.77,29.67,22,2,22,0.00
2014-5-21,93.5,79.9,63.1,26.6,15.7,-0.8,21,10,3,29.77,29.69,24,2,24,0.00
2014-5-22,92.8,77.4,58.1,27.4,20.6,12.7,24,13,6,29.83,29.69,23,2,23,0.00
2014-5-23,89.0,74.6,59.5,38.0,21.8,3.5,33,16,4,29.83,29.71,18,2,18,0.00
2014-5-24,87.7,75.7,59.6,39.3,34.2,27.2,41,24,12,29.86,29.74,14,1,14,0.00
2014-5-25,91.0,80.8,70.7,41.9,38.2,33.6,31,22,16,29.82,29.70,18,2,18,0.00
2014-5-26,98.0,83.9,64.4,41.4,37.3,34.0,35,20,11,29.86,29.73,17,1,17,0.00
2014-5-27,105.0,89.1,68.1,39.7,35.8,30.2,32,17,8,29.86,29.66,18,2,18,0.00
2014-5-28,104.5,88.6,70.1,34.6,30.0,18.5,24,13,6,29.76,29.58,16,2,16,0.00
2014-5-29,92.8,84.1,77.8,51.3,40.7,29.7,33,22,15,29.84,29.68,19,2,19,0.00
2014-5-30,103.8,88.3,66.7,47.3,40.8,34.4,44,21,11,29.77,29.60,13,1,13,0.00
2014-5-31,106.6,91.8,72.3,40.9,34.9,25.9,29,15,7,29.71,29.57,17,2,17,0.00
2014-6-1,105.0,89.2,68.1,36.1,27.2,17.1,26,12,5,29.72,29.58,16,1,16,0.00
2014-6-2,109.7,91.8,69.5,31.2,23.1,8.7,22,10,3,29.71,29.57,20,2,20,0.00
2014-6-3,108.3,92.4,72.4,34.7,28.1,20.0,22,11,5,29.68,29.54,18,1,18,0.00
2014-6-4,108.3,91.2,68.2,29.9,13.2,-0.8,20,7,2,29.67,29.53,18,1,18,0.00
2014-6-5,107.5,91.4,67.6,24.6,5.9,-24.9,16,5,1,29.64,29.49,17,2,17,0.00
2014-6-6,105.3,90.0,65.9,20.3,-10.2,-99.9,13,4,1,29.62,29.49,15,1,15,0.00
2014-6-7,105.5,89.4,65.7,41.1,22.7,5.9,18,10,3,29.63,29.50,16,2,16,0.00
2014-6-8,104.1,89.7,72.1,51.6,35.8,28.1,30,16,8,29.66,29.52,16,1,16,0.00
2014-6-9,105.8,93.9,73.7,51.7,33.3,14.0,41,15,5,29.69,29.54,12,1,16,0.00
2014-6-10,107.0,92.4,72.9,50.7,40.5,8.9,33,20,3,29.68,29.55,17,2,17,0.00
2014-6-11,104.8,91.7,76.6,51.4,45.7,35.3,38,22,12,29.69,29.59,19,3,19,0.00
2014-6-12,107.0,92.0,75.9,52.5,41.7,29.4,29,19,8,29.77,29.61,16,2,16,0.00
2014-6-13,105.8,93.2,77.2,53.5,48.1,41.8,40,23,13,29.73,29.55,20,2,20,0.00
2014-6-14,103.3,92.5,78.8,45.3,42.1,35.1,27,18,10,29.64,29.52,23,4,23,0.00
2014-6-15,103.2,89.2,69.3,41.0,29.2,11.9,30,14,4,29.67,29.59,19,3,19,0.00
2014-6-16,103.9,91.9,76.6,46.1,35.4,17.7,23,14,9,29.71,29.60,24,4,24,0.00
2014-6-17,100.8,90.8,81.3,50.1,45.7,41.3,29,21,17,29.73,29.61,19,4,19,0.00
2014-6-18,99.3,88.3,77.0,48.4,44.0,40.9,31,22,14,29.72,29.63,19,4,19,0.00
2014-6-19,102.5,89.3,69.9,44.9,40.0,35.5,30,19,12,29.80,29.66,13,1,13,0.00
2014-6-20,104.7,92.1,74.0,42.7,36.7,32.8,28,15,9,29.77,29.60,19,2,19,0.00
2014-6-21,104.8,92.3,75.7,43.5,40.4,35.6,29,17,10,29.75,29.59,18,2,18,0.00
2014-6-22,106.0,91.8,73.8,42.4,36.5,29.0,25,15,9,29.76,29.59,17,2,17,0.00
2014-6-23,105.8,91.8,72.8,39.6,31.2,16.6,23,13,5,29.76,29.61,22,2,22,0.00
2014-6-24,104.8,91.7,72.0,43.2,34.5,24.8,22,14,7,29.81,29.63,24,2,24,0.00
2014-6-25,107.2,93.0,75.2,49.4,44.3,38.4,34,20,11,29.76,29.59,21,2,21,0.00
2014-6-26,107.2,93.1,77.2,54.1,41.7,25.4,37,19,6,29.72,29.55,18,2,18,0.00
2014-6-27,103.1,90.5,73.9,42.1,35.7,28.1,23,15,8,29.65,29.52,20,2,20,0.00
2014-6-28,106.3,92.2,74.8,56.6,39.8,33.7,34,18,9,29.69,29.59,15,1,15,0.00
2014-6-29,109.0,94.8,78.3,58.7,49.1,31.1,40,24,7,29.76,29.60,19,1,19,0.00
2014-6-30,108.0,94.8,79.2,60.1,43.6,25.4,43,22,6,29.75,29.57,20,1,20,0.00
2014-7-1,106.5,94.0,76.2,44.0,38.0,31.8,28,15,8,29.72,29.57,15,1,15,0.00
2014-7-2,105.0,93.9,78.3,55.4,46.5,40.9,29,20,13,29.76,29.60,23,2,23,0.00
2014-7-3,104.8,87.2,72.3,68.2,57.5,50.8,85,42,17,29.90,29.64,21,2,21,0.53
2014-7-4,95.8,83.7,74.5,67.1,62.7,56.2,75,52,28,29.92,29.82,13,1,13,0.00
2014-7-5,97.2,82.8,73.0,70.8,65.0,60.8,87,58,32,29.94,29.78,25,1,25,0.18
2014-7-6,99.4,87.2,74.0,69.7,63.6,54.8,86,50,25,29.89,29.69,12,1,12,0.00
2014-7-7,98.8,83.8,78.3,67.0,64.4,61.3,64,53,31,29.78,29.68,24,1,24,0.00
2014-7-8,101.1,85.4,73.3,66.4,63.5,55.5,76,51,28,29.86,29.70,26,1,26,0.00
2014-7-9,97.3,84.9,73.4,67.1,61.2,49.8,79,48,21,29.88,29.71,15,2,15,0.00
2014-7-10,100.7,87.6,76.8,65.4,61.0,56.8,66,43,25,29.81,29.65,16,2,16,0.00
2014-7-11,102.1,89.3,79.6,64.0,59.8,53.7,55,39,23,29.84,29.67,21,2,21,0.00
2014-7-12,102.5,86.9,75.0,64.6,60.2,53.6,68,43,21,29.82,29.71,22,2,22,0.00
2014-7-13,104.5,86.0,72.7,71.5,61.9,54.8,85,49,20,29.87,29.68,17,2,20,0.28
2014-7-14,96.5,81.5,72.4,73.2,68.6,62.1,88,68,34,29.89,29.81,26,1,26,0.60
2014-7-15,87.7,80.5,74.6,70.1,66.8,64.2,81,64,47,29.95,29.81,9,0,12,0.96
2014-7-16,98.2,86.2,72.1,69.2,62.5,51.2,86,50,25,29.86,29.68,14,2,14,0.00
2014-7-17,100.0,87.5,76.5,65.7,52.1,41.3,67,34,15,29.82,29.69,12,1,12,0.00
2014-7-18,100.1,87.6,73.2,53.4,49.6,44.4,48,28,19,29.84,29.71,13,1,13,0.00
2014-7-19,101.5,90.2,77.9,60.4,54.2,44.6,55,31,20,29.83,29.69,13,1,13,0.00
2014-7-20,103.3,90.8,75.8,58.4,46.9,40.3,51,25,12,29.85,29.71,13,1,13,0.00
2014-7-21,102.4,90.3,76.5,53.1,46.6,42.5,44,24,14,29.89,29.74,14,1,16,0.00
2014-7-22,108.2,93.8,77.2,54.8,50.1,44.9,42,24,14,29.85,29.71,12,0,12,0.00
2014-7-23,109.0,94.8,85.3,63.7,58.7,52.6,47,32,17,29.82,29.66,18,2,18,0.00
2014-7-24,109.0,95.1,77.1,66.8,54.7,40.5,66,32,11,29.76,29.60,21,2,21,0.00
2014-7-25,104.4,86.8,77.3,68.5,63.4,58.8,68,48,25,29.82,29.67,28,1,28,0.00
2014-7-26,99.5,88.6,73.8,65.8,62.1,57.6,72,44,27,29.87,29.69,17,2,17,0.00
2014-7-27,99.5,88.9,75.5,65.0,59.6,55.4,65,39,26,29.92,29.74,30,3,30,0.01
2014-7-28,96.5,87.0,75.7,65.1,61.9,58.6,68,45,29,29.95,29.81,10,1,10,0.00
2014-7-29,104.1,91.5,75.4,67.3,59.5,51.6,71,38,18,29.89,29.70,13,1,13,0.00
2014-7-30,105.8,92.7,78.0,61.2,56.0,51.1,52,31,17,29.79,29.67,16,1,16,0.00
2014-7-31,96.4,89.4,81.4,61.6,57.5,53.2,49,35,25,29.84,29.70,14,1,14,0.00
2014-8-1,95.3,82.9,72.2,69.7,64.3,57.6,88,56,33,29.88,29.71,18,2,18,0.26
2014-8-2,92.8,78.9,72.9,73.0,67.2,61.3,90,70,36,29.88,29.78,15,1,15,0.15
2014-8-3,97.6,82.7,69.5,71.0,64.8,56.9,92,60,27,29.90,29.75,27,0,27,0.10
2014-8-4,100.1,87.7,73.4,67.2,56.6,41.2,79,40,15,29.85,29.71,16,1,16,0.00
2014-8-5,103.5,88.5,70.1,56.2,48.1,36.1,60,28,11,29.87,29.74,16,1,16,0.00
2014-8-6,104.8,91.3,73.3,59.6,49.9,33.3,59,28,13,29.84,29.67,14,1,14,0.00
2014-8-7,102.0,89.3,74.2,61.1,49.3,43.3,46,27,14,29.81,29.67,12,1,12,0.00
2014-8-8,100.3,88.4,76.2,62.2,57.9,49.3,60,38,19,29.82,29.65,18,2,18,0.00
2014-8-9,98.4,87.3,77.3,64.4,59.3,51.0,62,41,23,29.86,29.69,17,2,17,0.00
2014-8-10,100.0,86.8,73.8,68.5,59.6,56.6,67,42,25,29.85,29.71,15,1,15,0.06
2014-8-11,102.8,88.9,78.9,71.3,61.8,57.8,69,42,24,29.82,29.69,17,2,17,0.03
2014-8-12,95.0,81.3,71.4,71.5,65.8,60.9,92,63,34,29.85,29.75,23,1,23,0.96
2014-8-13,94.9,81.5,71.8,71.7,68.1,64.3,88,65,39,29.91,29.79,15,1,15,0.02
2014-8-14,95.8,82.2,73.0,69.3,66.5,62.6,85,61,35,29.87,29.77,19,0,19,0.00
2014-8-15,98.3,85.8,74.6,68.8,65.0,59.3,79,53,30,29.90,29.75,15,1,15,0.00
2014-8-16,100.1,87.6,74.4,68.2,62.8,53.1,77,47,24,29.89,29.72,12,1,12,0.00
2014-8-17,102.6,86.8,70.1,66.2,60.8,55.8,84,45,24,29.87,29.66,25,2,25,0.03
2014-8-18,97.1,84.6,75.2,66.2,62.7,57.1,67,50,28,29.82,29.67,15,2,15,0.00
2014-8-19,90.7,80.1,73.1,72.2,65.5,61.1,77,62,40,29.78,29.65,16,1,16,0.03
2014-8-20,96.3,82.8,68.9,65.7,60.0,50.6,81,50,23,29.85,29.71,18,1,18,0.00
2014-8-21,88.4,78.1,68.5,69.8,63.4,57.7,84,62,40,29.90,29.78,15,0,15,0.30
2014-8-22,93.3,80.4,67.0,65.9,61.3,56.6,88,56,31,29.90,29.77,13,1,13,0.00
2014-8-23,95.5,83.5,70.3,65.7,59.3,53.7,76,47,25,29.84,29.68,10,1,10,0.00
2014-8-24,99.7,86.4,69.8,62.8,58.0,50.0,74,42,21,29.77,29.65,14,1,14,0.00
2014-8-25,96.0,83.0,74.9,66.7,63.9,59.8,72,54,35,29.85,29.70,15,1,15,0.00
2014-8-26,93.8,80.0,72.1,71.2,66.0,60.8,91,65,36,29.89,29.77,13,1,13,0.35
2014-8-27,96.0,83.4,70.6,70.5,65.1,55.9,91,58,28,29.95,29.81,11,1,11,0.00
2014-8-28,99.8,86.6,71.2,65.5,56.9,46.8,80,41,19,29.85,29.69,11,1,11,0.00
2014-8-29,102.8,87.3,68.8,56.8,48.8,39.6,61,31,12,29.76,29.63,11,1,11,0.00
2014-8-30,106.0,90.3,71.0,53.9,46.2,39.6,52,25,11,29.74,29.60,15,1,15,0.00
2014-8-31,105.1,90.4,72.2,53.6,47.4,38.1,47,25,11,29.75,29.62,16,2,16,0.00
2014-9-1,104.1,89.6,70.8,51.8,48.2,44.9,48,26,15,29.75,29.61,12,1,12,0.00
2014-9-2,106.3,92.1,71.2,55.5,49.1,37.5,50,26,11,29.75,29.57,12,1,12,0.00
2014-9-3,104.0,90.2,76.2,61.5,52.0,37.8,48,29,12,29.66,29.52,11,1,14,0.00
2014-9-4,101.4,87.1,69.9,67.3,57.7,52.5,90,42,20,29.80,29.50,19,2,25,0.24
2014-9-5,94.8,82.4,69.1,67.2,62.8,55.1,87,55,27,29.84,29.72,9,1,10,0.00
2014-9-6,94.8,80.4,73.2,71.6,66.6,61.9,88,65,36,29.85,29.74,13,1,15,0.31
2014-9-7,96.1,83.0,72.6,71.3,65.5,61.5,83,59,33,29.83,29.67,12,2,15,0.10
2014-9-8,80.8,75.6,71.4,72.5,70.1,68.2,94,83,68,29.85,29.72,8,0,9,0.19
2014-9-9,89.7,79.0,69.4,70.0,66.9,59.5,94,69,38,29.87,29.74,8,1,11,0.00
2014-9-10,93.8,80.5,67.2,66.8,63.0,57.4,91,59,31,29.85,29.71,11,1,11,0.00
2014-9-11,96.4,83.6,67.9,63.5,58.6,53.0,82,46,24,29.78,29.66,11,1,11,0.00
2014-9-12,101.8,85.3,69.9,67.5,58.5,50.8,79,44,19,29.75,29.60,13,1,13,0.57
2014-9-13,92.4,83.7,74.8,64.9,59.0,55.7,63,44,32,29.76,29.65,15,3,15,0.00
2014-9-14,96.5,85.2,74.1,60.1,57.7,54.3,55,41,25,29.76,29.64,14,3,14,0.00
2014-9-15,98.2,88.0,78.8,65.1,60.1,56.7,54,40,27,29.77,29.66,12,2,14,0.00
2014-9-16,82.9,77.7,70.0,70.0,66.6,60.6,89,69,53,29.83,29.70,15,1,15,0.12
2014-9-17,83.8,76.0,71.9,72.2,67.7,63.8,92,76,57,29.74,29.62,16,1,16,0.14
2014-9-18,84.1,76.5,71.1,69.2,67.4,64.9,88,74,58,29.72,29.65,6,0,7,0.00
2014-9-19,92.0,80.1,72.0,72.5,68.8,65.7,90,70,43,29.78,29.67,9,0,9,0.03
2014-9-20,92.1,81.2,70.8,70.5,67.3,63.1,90,65,40,29.81,29.71,10,0,11,0.00
2014-9-21,95.8,82.7,71.1,67.0,62.5,54.8,82,54,30,29.87,29.73,12,1,12,0.00
2014-9-22,96.7,85.2,74.1,65.6,62.2,57.1,70,48,29,29.88,29.74,10,1,14,0.00
2014-9-23,97.9,86.0,72.1,66.4,59.7,50.1,70,43,29,29.85,29.70,11,1,14,0.00
2014-9-24,102.2,87.6,71.2,63.4,57.6,50.5,64,38,21,29.82,29.67,14,1,14,0.00
2014-9-25,101.1,87.4,75.6,67.0,60.0,51.7,71,43,20,29.82,29.69,15,1,18,0.00
2014-9-26,93.3,81.0,73.8,66.0,62.8,59.2,68,55,34,29.81,29.69,12,1,12,0.00
2014-9-27,92.3,79.8,70.0,63.4,60.8,57.6,73,54,33,29.75,29.59,14,1,17,0.00
2014-9-28,91.2,80.3,71.5,64.4,59.2,48.9,74,51,26,29.77,29.68,13,2,19,0.00
2014-9-29,91.0,78.0,67.4,57.6,47.3,35.6,55,36,19,29.78,29.69,9,1,14,0.00
2014-9-30,88.7,73.5,55.9,48.1,40.3,36.1,66,33,16,29.80,29.68,10,1,11,0.00
2014-10-1,92.2,75.0,57.3,47.9,41.0,33.9,61,32,14,29.78,29.66,11,1,12,0.00
2014-10-2,92.4,75.4,56.6,46.4,38.3,28.5,62,30,11,29.93,29.78,9,1,10,0.00
2014-10-3,98.0,77.2,54.3,40.8,34.1,21.9,52,25,7,29.99,29.85,10,1,12,0.00
2014-10-4,98.7,80.4,59.6,45.8,38.4,30.6,50,26,10,29.92,29.78,15,1,15,0.00
2014-10-5,94.2,78.7,60.7,51.6,44.5,29.3,59,32,14,29.88,29.73,13,1,18,0.00
2014-10-6,92.4,77.6,63.5,49.7,40.5,35.6,49,29,14,29.88,29.77,8,1,8,0.00
2014-10-7,92.6,77.5,65.8,60.2,47.5,38.5,64,37,20,29.88,29.76,12,1,12,0.00
2014-10-8,73.1,68.0,65.6,66.9,63.9,58.2,95,87,60,29.83,29.70,10,0,10,0.74
2014-10-9,74.6,68.6,63.2,66.2,63.1,59.4,96,84,60,29.89,29.78,8,1,13,0.08
2014-10-10,83.3,72.2,60.0,63.4,59.8,56.8,94,68,42,29.95,29.85,8,0,8,0.01
2014-10-11,88.1,73.1,59.3,61.5,56.9,48.6,93,61,27,29.93,29.80,10,0,10,0.00
2014-10-12,87.7,73.4,57.3,58.9,50.7,39.8,90,51,20,29.84,29.74,13,1,13,0.00
2014-10-13,86.8,72.2,58.6,52.2,42.8,29.0,78,39,19,29.96,29.81,11,0,11,0.00
2014-10-14,91.7,73.0,53.9,49.2,40.9,32.6,71,37,13,29.96,29.80,12,1,12,0.00
2014-10-15,93.7,76.3,58.9,52.1,47.1,40.3,66,38,20,29.87,29.76,13,1,13,0.00
2014-10-16,91.8,75.3,60.0,54.8,49.4,41.9,75,44,18,29.89,29.75,9,0,9,0.00
2014-10-17,87.5,71.6,61.1,51.1,46.3,37.5,61,43,18,29.90,29.75,16,1,16,0.00
2014-10-18,92.1,74.7,56.7,50.0,47.3,42.3,71,41,18,29.81,29.65,12,1,12,0.00
2014-10-19,88.3,70.6,60.3,57.6,51.8,42.3,81,55,23,29.81,29.64,23,1,23,0.05
2014-10-20,86.1,72.5,57.3,53.8,51.0,47.4,82,50,28,29.86,29.74,9,1,9,0.00
2014-10-21,86.8,74.9,65.5,53.0,49.2,43.6,58,42,23,29.82,29.70,13,1,13,0.00
2014-10-22,90.0,73.8,58.7,53.4,49.3,44.8,71,45,22,29.89,29.78,9,1,9,0.00
2014-10-23,91.5,74.3,56.0,53.0,48.3,42.9,77,44,19,29.97,29.85,10,1,10,0.00
2014-10-24,94.8,76.3,58.9,51.6,48.0,43.6,67,41,18,30.00,29.86,9,1,9,0.00
2014-10-25,96.6,78.7,60.4,53.1,50.1,47.0,66,40,21,29.97,29.82,10,1,11,0.00
2014-10-26,87.8,75.9,62.7,58.2,54.2,44.1,72,49,28,29.84,29.70,12,0,12,0.00
2014-10-27,86.0,73.4,63.7,56.1,53.1,48.0,73,51,28,29.85,29.71,15,0,15,0.00
2014-10-28,86.7,70.8,54.9,52.8,47.3,39.4,79,47,20,29.97,29.85,11,0,11,0.00
2014-10-29,88.6,71.1,53.0,47.1,44.1,38.1,72,42,17,30.00,29.88,10,1,10,0.00
2014-10-30,91.9,72.9,54.1,46.4,40.1,33.5,64,35,14,29.98,29.83,10,0,10,0.00
2014-10-31,91.3,78.0,61.2,50.8,45.2,38.6,53,33,21,29.88,29.69,16,2,16,0.00
2014-11-1,87.5,75.1,64.8,55.3,47.2,35.3,64,40,19,29.79,29.69,19,2,19,0.00
2014-11-2,73.5,65.5,55.1,55.9,45.2,33.9,68,49,35,29.92,29.78,14,2,14,0.00
2014-11-3,68.8,57.6,45.5,38.0,32.8,27.5,66,41,22,30.03,29.92,10,2,13,0.00
2014-11-4,73.7,57.9,40.7,32.8,30.4,28.6,65,38,20,30.11,29.97,10,0,10,0.00
2014-11-5,77.9,65.5,50.5,40.8,36.7,31.8,57,36,21,30.08,29.96,24,2,24,0.00
2014-11-6,79.8,68.6,59.1,44.2,40.5,36.1,50,37,24,30.19,30.06,19,3,19,0.00
2014-11-7,80.2,67.8,54.9,45.3,40.6,32.8,60,39,25,30.13,29.93,11,1,11,0.00
2014-11-8,86.5,68.0,47.4,41.5,35.9,30.8,65,35,14,30.06,29.93,14,2,14,0.00
2014-11-9,85.2,71.3,58.5,41.0,37.3,33.8,44,30,17,29.97,29.72,13,2,13,0.00
2014-11-10,85.6,68.6,52.9,43.4,37.6,33.4,53,35,16,29.82,29.69,15,1,15,0.00
2014-11-11,83.0,70.0,57.1,49.7,46.6,42.6,69,45,25,29.84,29.75,16,1,16,0.00
2014-11-12,80.5,68.4,58.6,52.1,47.0,41.3,73,49,27,29.91,29.76,14,1,14,0.00
2014-11-13,80.6,67.5,51.8,52.6,45.8,40.4,81,49,26,29.97,29.86,11,1,14,0.00
2014-11-14,79.1,64.1,51.8,53.4,48.2,42.2,79,58,30,29.92,29.82,12,1,12,0.00
2014-11-15,76.4,64.2,50.6,52.8,45.4,35.9,86,54,26,29.99,29.85,11,1,11,0.00
2014-11-16,68.1,59.7,46.0,49.8,33.0,9.2,78,42,16,30.11,29.81,16,2,16,0.00
2014-11-17,68.8,52.1,37.9,23.2,15.7,9.9,35,24,16,30.18,30.05,8,1,16,0.00
2014-11-18,72.1,53.9,36.9,24.3,18.9,13.8,49,28,11,30.24,30.12,6,0,6,0.00
2014-11-19,73.9,55.8,39.7,23.5,18.2,13.7,43,25,10,30.17,30.01,9,1,9,0.00
2014-11-20,74.3,54.6,36.5,23.4,18.0,11.7,46,26,10,30.09,29.94,8,0,8,0.00
2014-11-21,71.4,55.7,43.4,37.8,24.1,16.7,64,31,14,29.97,29.82,14,1,14,0.00
2014-11-22,72.5,54.9,38.1,38.6,31.8,26.3,80,46,19,30.09,29.94,9,0,9,0.00
2014-11-23,66.8,54.3,41.5,34.2,26.0,-1.5,59,36,10,30.13,29.93,12,2,16,0.00
2014-11-24,63.8,50.9,33.9,12.3,6.1,-2.8,34,17,7,30.33,30.11,15,2,15,0.00
2014-11-25,64.5,50.9,34.3,8.7,5.2,-1.5,29,16,7,30.43,30.28,11,2,11,0.00
2014-11-26,73.8,52.9,34.2,20.0,13.1,6.0,34,22,10,30.33,30.17,6,0,6,0.00
2014-11-27,84.8,62.0,40.3,28.3,22.2,17.1,45,24,10,30.21,30.04,13,1,13,0.00
2014-11-28,84.6,66.8,51.2,26.7,23.3,19.9,33,21,10,30.04,29.84,12,1,12,0.00
2014-11-29,83.4,63.8,44.5,28.9,23.7,17.5,46,24,11,29.94,29.81,10,1,10,0.00
2014-11-30,79.2,63.5,48.4,30.9,26.4,20.9,40,26,15,30.06,29.89,14,1,14,0.00
2014-12-1,74.0,56.6,40.5,32.5,29.5,26.4,59,38,18,30.16,30.00,5,0,5,0.00
2014-12-2,71.5,59.1,46.3,47.6,32.1,25.1,63,39,18,30.04,29.93,9,0,9,0.00
2014-12-3,82.2,68.2,57.3,52.7,49.0,40.6,72,51,34,30.02,29.89,10,1,10,0.00
2014-12-4,64.1,59.1,52.8,57.7,53.8,49.6,94,83,62,30.05,29.88,7,0,7,0.45
2014-12-5,69.8,56.8,46.1,52.7,49.3,44.3,95,78,49,30.16,30.05,0,0,0,0.00
2014-12-6,66.9,56.7,49.2,52.0,49.3,46.1,91,78,52,30.15,30.06,0,0,0,0.00
2014-12-7,72.8,57.6,45.0,50.5,46.0,41.4,90,69,37,30.19,30.04,0,0,0,0.01
2014-12-8,74.6,60.7,49.2,48.7,45.2,41.3,90,61,31,30.08,29.98,0,0,0,0.00
2014-12-9,74.5,60.2,50.1,48.5,46.1,42.8,86,62,33,30.02,29.92,0,0,0,0.00
2014-12-10,73.8,58.9,43.5,49.8,45.4,40.3,92,64,34,30.00,29.88,0,0,0,0.00
2014-12-11,75.6,58.6,45.2,46.1,37.9,30.1,85,52,20,30.03,29.94,0,0,0,0.00
2014-12-12,78.4,63.9,47.6,52.3,39.9,31.0,67,43,26,30.06,29.91,0,0,0,0.00
2014-12-13,62.9,53.4,43.4,53.2,47.8,39.5,92,82,65,30.06,29.91,0,0,0,0.34
2014-12-14,57.9,46.8,37.0,43.2,39.0,34.9,94,76,47,30.14,30.05,0,0,0,0.01
2014-12-15,65.5,48.8,35.8,43.8,38.7,33.3,94,71,33,30.11,29.98,0,0,0,0.01
2014-12-16,67.0,53.1,43.7,44.2,41.4,35.2,89,67,38,30.05,29.92,0,0,0,0.00
2014-12-17,58.7,50.7,46.4,50.3,46.4,38.8,94,86,61,30.13,29.98,0,0,0,0.62
2014-12-18,56.2,49.4,42.5,49.9,45.2,39.5,95,86,63,30.18,30.05,0,0,0,0.01
2014-12-19,61.2,47.6,35.5,43.6,39.2,33.6,95,75,40,30.25,30.10,0,0,0,0.00
2014-12-20,62.0,49.7,39.7,42.8,39.1,35.2,91,70,38,30.17,30.03,0,0,0,0.00
2014-12-21,62.2,49.5,38.2,43.6,39.5,35.7,93,71,41,30.15,30.01,0,0,0,0.00
2014-12-22,65.2,51.1,38.7,44.3,41.1,36.0,93,71,43,30.05,29.88,0,0,0,0.00
2014-12-23,60.9,51.5,42.0,43.2,26.7,13.4,90,46,17,30.15,29.94,21,3,21,0.00
2014-12-24,65.2,48.6,32.8,28.6,22.1,12.8,66,38,15,30.16,29.83,9,1,9,0.00
2014-12-25,69.2,53.1,45.0,43.3,30.9,20.7,89,48,17,29.83,29.64,22,2,22,0.04
2014-12-26,52.6,44.2,33.9,41.1,23.8,16.0,88,47,24,30.12,29.80,9,1,9,0.00
2014-12-27,52.8,39.8,27.0,28.4,24.0,22.0,86,56,30,30.34,30.11,8,1,8,0.00
2014-12-28,57.2,41.7,27.0,27.0,23.2,17.7,84,52,22,30.33,30.16,8,0,8,0.00
2014-12-29,62.2,43.5,27.4,27.4,21.3,11.9,84,48,14,30.20,30.04,5,0,5,0.00
2014-12-30,71.6,51.6,33.4,23.0,18.2,3.6,63,32,7,30.06,29.85,11,1,15,0.00
2014-12-31,59.8,46.6,34.1,40.7,32.7,19.3,93,64,26,30.01,29.78,29,3,29,0.46
2015-1-1,43.6,36.5,33.1,35.5,32.1,28.8,94,85,61,30.13,30.00,13,2,13,0.01
2015-1-2,44.4,35.7,28.4,31.9,28.2,25.5,93,75,51,30.17,30.04,4,0,8,0.00